CDS weather

Childress Municipal Airport
Childress, Texas, United States

Public forecast

Using degrees Fahrenheit for public forecast. Weather courtesy of forecast.io.

Current aviation weather report (METAR) for Childress Municipal Airport

Retrieved 2020/06/05 21:53 UTC (52 minutes ago):

KCDS 052153Z AUTO 15012G17KT 10SM CLR 37/16 A2992 RMK AO2 SLP100 T03670156

Aviation forecast (TAF) for Childress Municipal Airport

Retrieved 2020/06/05 18:22 UTC (4 hours ago):

TAF KCDS 051720Z 0518/0618 16011KT P6SM FEW250